Time,TemperatureF,DewpointF,PressureIn,WindDirection,WindDirectionDegrees,WindSpeedMPH,WindSpeedGustMPH,Humidity,HourlyPrecipIn,Conditions,Clouds,dailyrainin,SoftwareType,DateUTC
2013-12-05 00:02:00,-6.5,-15.9,31.40,West,270,4.0,4.0,63,0.00,,,0.00,meteohub,2013-12-05 07:02:00,
2013-12-05 00:07:00,-6.7,-16.1,31.40,NW,315,3.0,4.0,63,0.00,,,0.00,meteohub,2013-12-05 07:07:00,
2013-12-05 00:12:00,-6.7,-16.1,31.39,NW,315,2.0,4.0,63,0.00,,,0.00,meteohub,2013-12-05 07:12:00,
2013-12-05 00:17:00,-6.7,-16.1,31.39,NW,315,2.0,4.0,63,0.00,,,0.00,meteohub,2013-12-05 07:17:00,
2013-12-05 00:22:00,-6.5,-15.9,31.40,NW,315,2.0,4.0,63,0.00,,,0.00,meteohub,2013-12-05 07:22:00,
2013-12-05 00:27:00,-6.5,-15.9,31.40,NW,315,3.0,3.0,63,0.00,,,0.00,meteohub,2013-12-05 07:27:00,
2013-12-05 00:32:00,-6.5,-15.9,31.40,West,270,3.0,4.0,63,0.00,,,0.00,meteohub,2013-12-05 07:32:00,
2013-12-05 00:37:00,-6.5,-15.9,31.40,NW,315,2.0,4.0,63,0.00,,,0.00,meteohub,2013-12-05 07:37:00,
2013-12-05 00:42:00,-6.5,-15.9,31.39,West,270,2.0,4.0,63,0.00,,,0.00,meteohub,2013-12-05 07:42:00,
2013-12-05 00:47:00,-6.7,-16.1,31.39,North,0,0.0,4.0,63,0.00,,,0.00,meteohub,2013-12-05 07:47:00,
2013-12-05 00:52:00,-6.7,-16.1,31.39,North,0,0.0,3.0,63,0.00,,,0.00,meteohub,2013-12-05 07:52:00,
2013-12-05 00:57:00,-6.9,-16.2,31.39,West,270,0.0,3.0,63,0.00,,,0.00,meteohub,2013-12-05 07:57:00,
2013-12-05 01:02:00,-7.2,-16.8,31.39,NNW,338,2.0,2.0,62,0.00,,,0.00,meteohub,2013-12-05 08:02:00,
2013-12-05 01:07:00,-7.2,-16.8,31.39,NNW,338,2.0,2.0,62,0.00,,,0.00,meteohub,2013-12-05 08:07:00,
2013-12-05 01:12:00,-8.5,-19.7,31.39,South,180,0.0,2.0,57,0.00,,,0.00,meteohub,2013-12-05 08:12:00,
2013-12-05 01:17:00,-9.0,-20.6,31.39,North,0,2.0,2.0,56,0.00,,,0.00,meteohub,2013-12-05 08:17:00,
2013-12-05 01:22:00,-9.4,-20.7,31.39,West,270,2.0,2.0,56,0.00,,,0.00,meteohub,2013-12-05 08:22:00,
2013-12-05 01:27:00,-10.1,-21.5,31.39,West,270,0.0,3.0,56,0.00,,,0.00,meteohub,2013-12-05 08:27:00,
2013-12-05 01:32:00,-10.5,-21.8,31.39,West,270,2.0,4.0,56,0.00,,,0.00,meteohub,2013-12-05 08:32:00,
2013-12-05 01:37:00,-10.7,-22.0,31.39,West,270,2.0,4.0,56,0.00,,,0.00,meteohub,2013-12-05 08:37:00,
2013-12-05 01:42:00,-10.7,-22.0,31.39,SW,225,2.0,4.0,56,0.00,,,0.00,meteohub,2013-12-05 08:42:00,
2013-12-05 01:47:00,-10.7,-22.0,31.39,North,0,2.0,3.0,56,0.00,,,0.00,meteohub,2013-12-05 08:47:00,
2013-12-05 01:52:00,-10.8,-22.2,31.39,North,0,0.0,3.0,56,0.00,,,0.00,meteohub,2013-12-05 08:52:00,
2013-12-05 01:57:00,-10.8,-22.2,31.39,North,0,0.0,2.0,56,0.00,,,0.00,meteohub,2013-12-05 08:57:00,
2013-12-05 02:02:00,-11.0,-22.4,31.39,North,0,0.0,2.0,56,0.00,,,0.00,meteohub,2013-12-05 09:02:00,
2013-12-05 02:07:00,-11.2,-22.9,31.39,North,0,2.0,0.0,55,0.00,,,0.00,meteohub,2013-12-05 09:07:00,
2013-12-05 02:12:00,-11.4,-22.7,31.39,North,0,0.0,2.0,56,0.00,,,0.00,meteohub,2013-12-05 09:12:00,
2013-12-05 02:17:00,-11.6,-22.9,31.39,North,0,0.0,2.0,56,0.00,,,0.00,meteohub,2013-12-05 09:17:00,
2013-12-05 02:22:00,-11.9,-23.3,31.39,North,0,0.0,2.0,56,0.00,,,0.00,meteohub,2013-12-05 09:22:00,
2013-12-05 02:27:00,-12.3,-23.8,31.39,North,0,0.0,1.0,55,0.00,,,0.00,meteohub,2013-12-05 09:27:00,
2013-12-05 02:32:00,-12.5,-24.0,31.39,North,0,2.0,0.0,55,0.00,,,0.00,meteohub,2013-12-05 09:32:00,
2013-12-05 02:37:00,-12.8,-24.3,31.39,North,0,0.0,2.0,55,0.00,,,0.00,meteohub,2013-12-05 09:37:00,
2013-12-05 02:42:00,-13.0,-24.5,31.39,North,0,0.0,2.0,55,0.00,,,0.00,meteohub,2013-12-05 09:42:00,
2013-12-05 02:47:00,-13.4,-24.5,31.39,North,0,0.0,2.0,56,0.00,,,0.00,meteohub,2013-12-05 09:47:00,
2013-12-05 02:53:00,-13.5,-25.1,31.39,North,0,0.0,0.0,55,0.00,,,0.00,meteohub,2013-12-05 09:53:00,
2013-12-05 02:58:00,-13.5,-25.1,31.39,North,0,0.0,0.0,55,0.00,,,0.00,meteohub,2013-12-05 09:58:00,
2013-12-05 03:03:00,-13.7,-25.2,31.39,North,0,0.0,0.0,55,0.00,,,0.00,meteohub,2013-12-05 10:03:00,
2013-12-05 03:08:00,-13.7,-25.2,31.39,North,0,0.0,0.0,55,0.00,,,0.00,meteohub,2013-12-05 10:08:00,
2013-12-05 03:13:00,-13.9,-25.4,31.39,North,0,0.0,0.0,55,0.00,,,0.00,meteohub,2013-12-05 10:13:00,
2013-12-05 03:18:00,-14.3,-25.8,31.39,North,0,0.0,0.0,55,0.00,,,0.00,meteohub,2013-12-05 10:18:00,
2013-12-05 03:24:00,-14.6,-26.1,31.39,SW,225,0.0,0.0,55,0.00,,,0.00,meteohub,2013-12-05 10:24:00,
2013-12-05 03:29:00,-15.0,-26.1,31.39,SW,225,0.0,0.0,56,0.00,,,0.00,meteohub,2013-12-05 10:29:00,
2013-12-05 03:34:00,-15.3,-26.7,31.39,South,180,0.0,0.0,55,0.00,,,0.00,meteohub,2013-12-05 10:34:00,
2013-12-05 03:39:00,-15.7,-27.0,31.39,West,270,0.0,0.0,55,0.00,,,0.00,meteohub,2013-12-05 10:39:00,
2013-12-05 03:44:00,-16.1,-27.4,31.38,South,180,0.0,0.0,55,0.00,,,0.00,meteohub,2013-12-05 10:44:00,
2013-12-05 03:50:00,-16.2,-27.6,31.38,SW,225,0.0,0.0,55,0.00,,,0.00,meteohub,2013-12-05 10:50:00,
2013-12-05 03:55:00,-16.4,-27.8,31.38,SW,225,0.0,0.0,55,0.00,,,0.00,meteohub,2013-12-05 10:55:00,
2013-12-05 04:00:00,-16.6,-27.9,31.38,NW,315,0.0,0.0,55,0.00,,,0.00,meteohub,2013-12-05 11:00:00,
2013-12-05 04:05:00,-16.6,-27.9,31.38,SW,225,0.0,0.0,55,0.00,,,0.00,meteohub,2013-12-05 11:05:00,
2013-12-05 04:10:00,-16.6,-27.9,31.38,SW,225,0.0,0.0,55,0.00,,,0.00,meteohub,2013-12-05 11:10:00,
2013-12-05 04:15:00,-17.0,-29.7,31.38,West,270,0.0,0.0,51,0.00,,,0.00,meteohub,2013-12-05 11:15:00,
2013-12-05 04:21:00,-17.0,-30.1,31.38,West,270,0.0,0.0,50,0.00,,,0.00,meteohub,2013-12-05 11:21:00,
2013-12-05 04:26:00,-17.0,-30.1,31.38,South,180,0.0,0.0,50,0.00,,,0.00,meteohub,2013-12-05 11:26:00,
2013-12-05 04:31:00,-17.0,-30.1,31.39,West,270,0.0,0.0,50,0.00,,,0.00,meteohub,2013-12-05 11:31:00,
2013-12-05 04:36:00,-17.0,-30.1,31.38,West,270,1.0,0.0,50,0.00,,,0.00,meteohub,2013-12-05 11:36:00,
2013-12-05 04:41:00,-17.1,-30.3,31.38,South,180,0.0,2.0,50,0.00,,,0.00,meteohub,2013-12-05 11:41:00,
2013-12-05 04:47:00,-17.1,-30.3,31.38,SW,225,2.0,2.0,50,0.00,,,0.00,meteohub,2013-12-05 11:47:00,
2013-12-05 04:52:00,-17.1,-30.3,31.38,WSW,248,2.0,3.0,50,0.00,,,0.00,meteohub,2013-12-05 11:52:00,
2013-12-05 04:57:00,-17.1,-30.3,31.37,SW,225,2.0,3.0,50,0.00,,,0.00,meteohub,2013-12-05 11:57:00,
2013-12-05 05:02:00,-17.0,-30.1,31.37,South,180,0.0,3.0,50,0.00,,,0.00,meteohub,2013-12-05 12:02:00,
2013-12-05 05:07:00,-17.0,-30.1,31.38,South,180,0.0,2.0,50,0.00,,,0.00,meteohub,2013-12-05 12:07:00,
2013-12-05 05:12:00,-17.0,-30.1,31.37,East,90,0.0,2.0,50,0.00,,,0.00,meteohub,2013-12-05 12:12:00,
2013-12-05 05:17:00,-17.0,-30.1,31.37,East,90,0.0,2.0,50,0.00,,,0.00,meteohub,2013-12-05 12:17:00,
2013-12-05 05:22:00,-17.0,-30.1,31.38,South,180,0.0,2.0,50,0.00,,,0.00,meteohub,2013-12-05 12:22:00,
2013-12-05 05:27:00,-17.0,-30.1,31.38,South,180,0.0,0.0,50,0.00,,,0.00,meteohub,2013-12-05 12:27:00,
2013-12-05 05:32:00,-17.1,-30.3,31.37,South,180,0.0,0.0,50,0.00,,,0.00,meteohub,2013-12-05 12:32:00,
2013-12-05 05:37:00,-17.3,-30.3,31.37,South,180,0.0,0.0,50,0.00,,,0.00,meteohub,2013-12-05 12:37:00,
2013-12-05 05:42:00,-17.3,-30.3,31.37,North,0,0.0,0.0,50,0.00,,,0.00,meteohub,2013-12-05 12:42:00,
2013-12-05 05:47:00,-17.3,-30.8,31.38,SW,225,0.0,0.0,49,0.00,,,0.00,meteohub,2013-12-05 12:47:00,
2013-12-05 05:52:00,-17.5,-30.8,31.37,SW,225,0.0,0.0,49,0.00,,,0.00,meteohub,2013-12-05 12:52:00,
2013-12-05 05:57:00,-17.5,-30.8,31.37,SW,225,0.0,0.0,49,0.00,,,0.00,meteohub,2013-12-05 12:57:00,
2013-12-05 06:02:00,-17.7,-31.0,31.38,SW,225,0.0,0.0,49,0.00,,,0.00,meteohub,2013-12-05 13:02:00,
2013-12-05 06:07:00,-17.9,-31.2,31.38,West,270,0.0,0.0,49,0.00,,,0.00,meteohub,2013-12-05 13:07:00,
2013-12-05 06:12:00,-17.9,-31.2,31.37,SW,225,0.0,0.0,49,0.00,,,0.00,meteohub,2013-12-05 13:12:00,
2013-12-05 06:17:00,-17.9,-31.2,31.38,NW,315,0.0,0.0,49,0.00,,,0.00,meteohub,2013-12-05 13:17:00,
2013-12-05 06:22:00,-17.9,-31.2,31.38,SW,225,0.0,0.0,49,0.00,,,0.00,meteohub,2013-12-05 13:22:00,
2013-12-05 06:27:00,-18.0,-31.4,31.37,West,270,0.0,0.0,49,0.00,,,0.00,meteohub,2013-12-05 13:27:00,
2013-12-05 06:32:00,-18.2,-31.9,31.38,SW,225,0.0,0.0,48,0.00,,,0.00,meteohub,2013-12-05 13:32:00,
2013-12-05 06:37:00,-18.2,-31.9,31.38,SW,225,0.0,0.0,48,0.00,,,0.00,meteohub,2013-12-05 13:37:00,
2013-12-05 06:42:00,-18.4,-32.1,31.38,SW,225,0.0,0.0,48,0.00,,,0.00,meteohub,2013-12-05 13:42:00,
2013-12-05 06:47:00,-18.4,-32.1,31.38,West,270,0.0,0.0,48,0.00,,,0.00,meteohub,2013-12-05 13:47:00,
2013-12-05 06:52:00,-18.6,-31.9,31.38,West,270,0.0,0.0,49,0.00,,,0.00,meteohub,2013-12-05 13:52:00,
2013-12-05 06:57:00,-18.6,-31.9,31.38,SW,225,0.0,0.0,49,0.00,,,0.00,meteohub,2013-12-05 13:57:00,
2013-12-05 07:02:00,-18.6,-31.9,31.38,SW,225,0.0,0.0,49,0.00,,,0.00,meteohub,2013-12-05 14:02:00,
2013-12-05 07:07:00,-18.6,-31.9,31.38,SW,225,0.0,0.0,49,0.00,,,0.00,meteohub,2013-12-05 14:07:00,
2013-12-05 07:12:00,-18.6,-31.9,31.38,West,270,0.0,0.0,49,0.00,,,0.00,meteohub,2013-12-05 14:12:00,
2013-12-05 07:17:00,-18.6,-31.9,31.37,SW,225,0.0,0.0,49,0.00,,,0.00,meteohub,2013-12-05 14:17:00,
2013-12-05 07:22:00,-18.6,-31.9,31.37,SW,225,0.0,0.0,49,0.00,,,0.00,meteohub,2013-12-05 14:22:00,
2013-12-05 07:27:00,-18.6,-31.9,31.38,West,270,0.0,0.0,49,0.00,,,0.00,meteohub,2013-12-05 14:27:00,
2013-12-05 07:32:00,-18.4,-32.1,31.38,West,270,0.0,0.0,48,0.00,,,0.00,meteohub,2013-12-05 14:32:00,
2013-12-05 07:37:00,-18.4,-32.1,31.37,SW,225,0.0,0.0,48,0.00,,,0.00,meteohub,2013-12-05 14:37:00,
2013-12-05 07:42:00,-18.2,-31.9,31.38,SW,225,0.0,0.0,48,0.00,,,0.00,meteohub,2013-12-05 14:42:00,
2013-12-05 07:47:00,-18.0,-31.7,31.38,NW,315,0.0,0.0,48,0.00,,,0.00,meteohub,2013-12-05 14:47:00,
2013-12-05 07:52:00,-17.7,-31.0,31.38,NW,315,0.0,0.0,49,0.00,,,0.00,meteohub,2013-12-05 14:52:00,
2013-12-05 07:57:00,-17.3,-30.8,31.38,East,90,0.0,0.0,49,0.00,,,0.00,meteohub,2013-12-05 14:57:00,
2013-12-05 08:02:00,-16.8,-29.9,31.38,East,90,0.0,0.0,50,0.00,,,0.00,meteohub,2013-12-05 15:02:00,
2013-12-05 08:07:00,-15.9,-27.6,31.38,SE,135,0.0,0.0,54,0.00,,,0.00,meteohub,2013-12-05 15:07:00,
2013-12-05 08:12:00,-14.1,-26.0,31.38,East,90,0.0,0.0,54,0.00,,,0.00,meteohub,2013-12-05 15:12:00,
2013-12-05 08:17:00,-12.6,-24.5,31.38,North,0,0.0,0.0,54,0.00,,,0.00,meteohub,2013-12-05 15:17:00,
2013-12-05 08:22:00,-11.4,-23.4,31.38,North,0,0.0,0.0,54,0.00,,,0.00,meteohub,2013-12-05 15:22:00,
2013-12-05 08:27:00,-10.1,-22.2,31.38,North,0,0.0,0.0,54,0.00,,,0.00,meteohub,2013-12-05 15:27:00,
2013-12-05 08:32:00,-8.5,-20.7,31.38,North,0,0.0,0.0,54,0.00,,,0.00,meteohub,2013-12-05 15:32:00,
2013-12-05 08:37:00,-7.2,-17.9,31.38,North,0,0.0,0.0,59,0.00,,,0.00,meteohub,2013-12-05 15:37:00,
2013-12-05 08:42:00,-6.0,-16.2,31.38,North,0,0.0,0.0,60,0.00,,,0.00,meteohub,2013-12-05 15:42:00,
2013-12-05 08:47:00,-4.9,-15.2,31.38,North,0,2.0,0.0,60,0.00,,,0.00,meteohub,2013-12-05 15:47:00,
2013-12-05 08:52:00,-4.0,-14.4,31.38,North,0,0.0,2.0,60,0.00,,,0.00,meteohub,2013-12-05 15:52:00,
2013-12-05 08:57:00,-2.9,-13.0,31.38,North,0,0.0,2.0,61,0.00,,,0.00,meteohub,2013-12-05 15:57:00,
2013-12-05 09:02:00,-2.4,-12.1,31.38,North,0,0.0,2.0,62,0.00,,,0.00,meteohub,2013-12-05 16:02:00,
2013-12-05 09:07:00,-2.4,-12.1,31.38,North,0,0.0,0.0,62,0.00,,,0.00,meteohub,2013-12-05 16:07:00,
2013-12-05 09:12:00,-0.6,-10.5,31.38,NE,45,0.0,2.0,62,0.00,,,0.00,meteohub,2013-12-05 16:12:00,
2013-12-05 09:17:00,-0.2,-10.5,31.38,NE,45,1.0,2.0,61,0.00,,,0.00,meteohub,2013-12-05 16:17:00,
2013-12-05 09:22:00,0.1,-10.1,31.38,SE,135,0.0,2.0,61,0.00,,,0.00,meteohub,2013-12-05 16:22:00,
2013-12-05 09:27:00,0.9,-9.0,31.38,SE,135,0.0,2.0,62,0.00,,,0.00,meteohub,2013-12-05 16:27:00,
2013-12-05 09:32:00,2.3,-6.2,31.38,North,0,2.0,2.0,67,0.00,,,0.00,meteohub,2013-12-05 16:32:00,
2013-12-05 09:37:00,2.7,-5.8,31.38,North,0,0.0,2.0,67,0.00,,,0.00,meteohub,2013-12-05 16:37:00,
2013-12-05 09:42:00,3.0,-5.4,31.38,North,0,1.0,2.0,67,0.00,,,0.00,meteohub,2013-12-05 16:42:00,
2013-12-05 09:47:00,3.6,-5.3,31.38,North,0,1.0,2.0,66,0.00,,,0.00,meteohub,2013-12-05 16:47:00,
2013-12-05 09:52:00,3.6,-4.9,31.38,North,0,1.0,2.0,67,0.00,,,0.00,meteohub,2013-12-05 16:52:00,
2013-12-05 09:57:00,3.7,-4.7,31.38,North,0,0.0,2.0,67,0.00,,,0.00,meteohub,2013-12-05 16:57:00,
2013-12-05 10:02:00,3.6,-5.3,31.37,East,90,2.0,2.0,66,0.00,,,0.00,meteohub,2013-12-05 17:02:00,
2013-12-05 10:07:00,3.0,-5.4,31.37,North,0,2.0,2.0,67,0.00,,,0.00,meteohub,2013-12-05 17:07:00,
2013-12-05 10:12:00,2.5,-6.0,31.37,North,0,0.0,3.0,67,0.00,,,0.00,meteohub,2013-12-05 17:12:00,
2013-12-05 10:17:00,1.8,-6.9,31.37,North,0,0.0,3.0,66,0.00,,,0.00,meteohub,2013-12-05 17:17:00,
2013-12-05 10:22:00,1.4,-7.2,31.37,NE,45,0.0,3.0,66,0.00,,,0.00,meteohub,2013-12-05 17:22:00,
2013-12-05 10:27:00,1.4,-7.2,31.37,SE,135,1.0,3.0,66,0.00,,,0.00,meteohub,2013-12-05 17:27:00,
2013-12-05 10:32:00,1.2,-8.7,31.37,NE,45,3.0,3.0,62,0.00,,,0.00,meteohub,2013-12-05 17:32:00,
2013-12-05 10:37:00,1.2,-8.7,31.36,NE,45,2.0,3.0,62,0.00,,,0.00,meteohub,2013-12-05 17:37:00,
2013-12-05 10:42:00,1.4,-7.2,31.36,East,90,0.0,3.0,66,0.00,,,0.00,meteohub,2013-12-05 17:42:00,
2013-12-05 10:47:00,1.9,-6.9,31.36,SE,135,3.0,4.0,66,0.00,,,0.00,meteohub,2013-12-05 17:47:00,
2013-12-05 10:52:00,2.8,-5.6,31.36,SE,135,1.0,4.0,67,0.00,,,0.00,meteohub,2013-12-05 17:52:00,
2013-12-05 10:57:00,3.7,-4.7,31.36,NNW,338,2.0,4.0,67,0.00,,,0.00,meteohub,2013-12-05 17:57:00,
2013-12-05 11:02:00,4.5,-4.0,31.36,NNW,338,1.0,4.0,67,0.00,,,0.00,meteohub,2013-12-05 18:02:00,
2013-12-05 11:07:00,4.5,-4.0,31.36,NNW,338,1.0,3.0,67,0.00,,,0.00,meteohub,2013-12-05 18:07:00,
2013-12-05 11:12:00,7.0,-1.7,31.35,South,180,4.0,4.0,67,0.00,,,0.00,meteohub,2013-12-05 18:12:00,
2013-12-05 11:17:00,7.3,-1.3,31.35,South,180,3.0,4.0,67,0.00,,,0.00,meteohub,2013-12-05 18:17:00,
2013-12-05 11:22:00,7.9,-0.4,31.35,South,180,2.0,5.0,68,0.00,,,0.00,meteohub,2013-12-05 18:22:00,
2013-12-05 11:27:00,8.6,0.0,31.34,South,180,2.0,5.0,67,0.00,,,0.00,meteohub,2013-12-05 18:27:00,
2013-12-05 11:32:00,9.5,1.0,31.34,South,180,2.0,5.0,68,0.00,,,0.00,meteohub,2013-12-05 18:32:00,
2013-12-05 11:37:00,10.2,2.1,31.34,SE,135,3.0,4.0,69,0.00,,,0.00,meteohub,2013-12-05 18:37:00,
2013-12-05 11:42:00,10.6,3.6,31.34,SE,135,4.0,4.0,73,0.00,,,0.00,meteohub,2013-12-05 18:42:00,
2013-12-05 11:47:00,10.6,3.4,31.34,SE,135,2.0,4.0,72,0.00,,,0.00,meteohub,2013-12-05 18:47:00,
2013-12-05 11:52:00,11.1,4.1,31.33,SE,135,5.0,5.0,73,0.00,,,0.00,meteohub,2013-12-05 18:52:00,
2013-12-05 11:57:00,10.0,1.2,31.33,SE,135,3.0,6.0,67,0.00,,,0.00,meteohub,2013-12-05 18:57:00,
2013-12-05 12:02:00,10.4,2.8,31.33,SE,135,4.0,6.0,71,0.00,,,0.00,meteohub,2013-12-05 19:02:00,
2013-12-05 12:07:00,10.0,1.0,31.33,SE,135,3.0,6.0,66,0.00,,,0.00,meteohub,2013-12-05 19:07:00,
2013-12-05 12:12:00,10.2,1.0,31.32,SE,135,4.0,5.0,66,0.00,,,0.00,meteohub,2013-12-05 19:12:00,
2013-12-05 12:17:00,10.8,2.8,31.32,SE,135,4.0,4.0,70,0.00,,,0.00,meteohub,2013-12-05 19:17:00,
2013-12-05 12:22:00,10.6,2.7,31.32,SE,135,4.0,5.0,70,0.00,,,0.00,meteohub,2013-12-05 19:22:00,
2013-12-05 12:27:00,10.8,2.8,31.32,SE,135,0.0,5.0,70,0.00,,,0.00,meteohub,2013-12-05 19:27:00,
2013-12-05 12:32:00,11.3,3.4,31.32,SE,135,2.0,5.0,70,0.00,,,0.00,meteohub,2013-12-05 19:32:00,
2013-12-05 12:37:00,11.3,3.4,31.32,SE,135,2.0,4.0,70,0.00,,,0.00,meteohub,2013-12-05 19:37:00,
2013-12-05 12:42:00,11.3,3.4,31.31,SE,135,0.0,4.0,70,0.00,,,0.00,meteohub,2013-12-05 19:42:00,
2013-12-05 12:47:00,11.8,4.3,31.31,SE,135,2.0,4.0,71,0.00,,,0.00,meteohub,2013-12-05 19:47:00,
2013-12-05 12:52:00,12.7,5.2,31.31,SE,135,3.0,4.0,71,0.00,,,0.00,meteohub,2013-12-05 19:52:00,
2013-12-05 12:57:00,12.4,4.5,31.31,SE,135,4.0,4.0,70,0.00,,,0.00,meteohub,2013-12-05 19:57:00,
2013-12-05 13:02:00,12.2,4.3,31.31,SE,135,2.0,4.0,70,0.00,,,0.00,meteohub,2013-12-05 20:02:00,
2013-12-05 13:07:00,12.2,4.3,31.31,SE,135,2.0,4.0,70,0.00,,,0.00,meteohub,2013-12-05 20:07:00,
2013-12-05 13:12:00,11.7,4.1,31.31,SE,135,4.0,4.0,71,0.00,,,0.00,meteohub,2013-12-05 20:12:00,
2013-12-05 13:17:00,11.1,3.2,31.30,SE,135,3.0,5.0,70,0.00,,,0.00,meteohub,2013-12-05 20:17:00,
2013-12-05 13:22:00,10.6,2.7,31.31,SE,135,3.0,5.0,70,0.00,,,0.00,meteohub,2013-12-05 20:22:00,
2013-12-05 13:27:00,10.2,0.9,31.31,SE,135,2.0,5.0,65,0.00,,,0.00,meteohub,2013-12-05 20:27:00,
2013-12-05 13:32:00,10.0,1.0,31.31,SE,135,2.0,4.0,66,0.00,,,0.00,meteohub,2013-12-05 20:32:00,
2013-12-05 13:37:00,9.7,0.7,31.31,SE,135,2.0,3.0,66,0.00,,,0.00,meteohub,2013-12-05 20:37:00,
2013-12-05 13:42:00,9.7,0.7,31.30,SE,135,0.0,4.0,66,0.00,,,0.00,meteohub,2013-12-05 20:42:00,
2013-12-05 13:47:00,9.7,0.7,31.31,SE,135,2.0,4.0,66,0.00,,,0.00,meteohub,2013-12-05 20:47:00,
2013-12-05 13:52:00,9.5,0.5,31.31,SE,135,2.0,4.0,66,0.00,,,0.00,meteohub,2013-12-05 20:52:00,
2013-12-05 13:57:00,9.1,0.1,31.31,SE,135,2.0,4.0,66,0.00,,,0.00,meteohub,2013-12-05 20:57:00,
2013-12-05 14:02:00,9.0,0.0,31.31,SE,135,2.0,4.0,66,0.00,,,0.00,meteohub,2013-12-05 21:02:00,
2013-12-05 14:07:00,9.1,0.1,31.31,SE,135,3.0,4.0,66,0.00,,,0.00,meteohub,2013-12-05 21:07:00,
2013-12-05 14:12:00,9.0,0.3,31.31,SE,135,2.0,4.0,67,0.00,,,0.00,meteohub,2013-12-05 21:12:00,
2013-12-05 14:17:00,9.0,0.3,31.31,SE,135,3.0,4.0,67,0.00,,,0.00,meteohub,2013-12-05 21:17:00,
2013-12-05 14:22:00,9.1,0.5,31.31,SE,135,2.0,3.0,67,0.00,,,0.00,meteohub,2013-12-05 21:22:00,
2013-12-05 14:27:00,9.0,0.3,31.31,SE,135,0.0,3.0,67,0.00,,,0.00,meteohub,2013-12-05 21:27:00,
2013-12-05 14:32:00,9.0,0.3,31.31,SE,135,2.0,3.0,67,0.00,,,0.00,meteohub,2013-12-05 21:32:00,
2013-12-05 14:37:00,8.6,0.0,31.31,SE,135,5.0,5.0,67,0.00,,,0.00,meteohub,2013-12-05 21:37:00,
2013-12-05 14:42:00,8.6,0.0,31.31,SE,135,4.0,6.0,67,0.00,,,0.00,meteohub,2013-12-05 21:42:00,
2013-12-05 14:47:00,8.8,0.1,31.31,SE,135,3.0,6.0,67,0.00,,,0.00,meteohub,2013-12-05 21:47:00,
2013-12-05 14:52:00,9.0,0.5,31.31,SE,135,4.0,6.0,68,0.00,,,0.00,meteohub,2013-12-05 21:52:00,
2013-12-05 14:57:00,9.1,0.7,31.31,SE,135,4.0,5.0,68,0.00,,,0.00,meteohub,2013-12-05 21:57:00,
2013-12-05 15:02:00,9.1,0.7,31.31,SE,135,2.0,8.0,68,0.00,,,0.00,meteohub,2013-12-05 22:02:00,
2013-12-05 15:07:00,9.1,0.7,31.31,SE,135,2.0,8.0,68,0.00,,,0.00,meteohub,2013-12-05 22:07:00,
2013-12-05 15:12:00,9.1,0.7,31.31,SE,135,6.0,8.0,68,0.00,,,0.00,meteohub,2013-12-05 22:12:00,
2013-12-05 15:17:00,9.0,0.5,31.31,SE,135,4.0,6.0,68,0.00,,,0.00,meteohub,2013-12-05 22:17:00,
2013-12-05 15:22:00,9.0,0.5,31.31,SE,135,2.0,6.0,68,0.00,,,0.00,meteohub,2013-12-05 22:22:00,
2013-12-05 15:27:00,8.8,0.3,31.31,SE,135,3.0,7.0,68,0.00,,,0.00,meteohub,2013-12-05 22:27:00,
2013-12-05 15:32:00,8.6,0.1,31.32,SE,135,6.0,7.0,68,0.00,,,0.00,meteohub,2013-12-05 22:32:00,
2013-12-05 15:37:00,8.8,0.3,31.32,SE,135,6.0,7.0,68,0.00,,,0.00,meteohub,2013-12-05 22:37:00,
2013-12-05 15:42:00,8.8,0.3,31.33,SE,135,2.0,6.0,68,0.00,,,0.00,meteohub,2013-12-05 22:42:00,
2013-12-05 15:47:00,8.6,0.1,31.32,SE,135,5.0,6.0,68,0.00,,,0.00,meteohub,2013-12-05 22:47:00,
2013-12-05 15:52:00,8.2,0.1,31.33,SE,135,8.0,8.0,69,0.00,,,0.00,meteohub,2013-12-05 22:52:00,
2013-12-05 15:57:00,7.9,-0.2,31.33,SE,135,5.0,8.0,69,0.00,,,0.00,meteohub,2013-12-05 22:57:00,
2013-12-05 16:02:00,7.5,-0.8,31.33,SE,135,10.0,10.0,68,0.00,,,0.00,meteohub,2013-12-05 23:02:00,
2013-12-05 16:07:00,7.2,-1.1,31.33,SE,135,4.0,10.0,68,0.00,,,0.00,meteohub,2013-12-05 23:07:00,
2013-12-05 16:12:00,6.8,-1.8,31.33,SE,135,2.0,10.0,67,0.00,,,0.00,meteohub,2013-12-05 23:12:00,
2013-12-05 16:17:00,6.4,-1.8,31.33,SE,135,4.0,10.0,68,0.00,,,0.00,meteohub,2013-12-05 23:17:00,
2013-12-05 16:22:00,5.9,-2.7,31.33,SE,135,2.0,4.0,67,0.00,,,0.00,meteohub,2013-12-05 23:22:00,
2013-12-05 16:27:00,5.5,-3.1,31.34,SE,135,2.0,7.0,67,0.00,,,0.00,meteohub,2013-12-05 23:27:00,
2013-12-05 16:32:00,5.2,-3.5,31.34,SE,135,0.0,7.0,67,0.00,,,0.00,meteohub,2013-12-05 23:32:00,
2013-12-05 16:37:00,4.6,-3.8,31.34,SE,135,0.0,4.0,67,0.00,,,0.00,meteohub,2013-12-05 23:37:00,
2013-12-05 16:42:00,3.9,-4.5,31.34,SE,135,0.0,2.0,67,0.00,,,0.00,meteohub,2013-12-05 23:42:00,
2013-12-05 16:47:00,3.2,-5.6,31.35,SE,135,0.0,4.0,66,0.00,,,0.00,meteohub,2013-12-05 23:47:00,
2013-12-05 16:52:00,2.5,-6.0,31.35,SE,135,3.0,4.0,67,0.00,,,0.00,meteohub,2013-12-05 23:52:00,
2013-12-05 16:57:00,1.9,-6.5,31.35,SE,135,1.0,4.0,67,0.00,,,0.00,meteohub,2013-12-05 23:57:00,
2013-12-05 17:02:00,1.6,-6.9,31.34,SE,135,0.0,3.0,67,0.00,,,0.00,meteohub,2013-12-06 00:02:00,
2013-12-05 17:07:00,1.6,-6.9,31.34,SE,135,0.0,3.0,67,0.00,,,0.00,meteohub,2013-12-06 00:07:00,
2013-12-05 17:12:00,0.3,-9.6,31.34,SE,135,2.0,2.0,62,0.00,,,0.00,meteohub,2013-12-06 00:12:00,
2013-12-05 17:17:00,0.0,-9.9,31.35,SE,135,0.0,2.0,62,0.00,,,0.00,meteohub,2013-12-06 00:17:00,
2013-12-05 17:22:00,-0.4,-10.3,31.35,SE,135,0.0,2.0,62,0.00,,,0.00,meteohub,2013-12-06 00:22:00,
2013-12-05 17:27:00,-0.8,-10.3,31.35,SE,135,2.0,2.0,63,0.00,,,0.00,meteohub,2013-12-06 00:27:00,
2013-12-05 17:32:00,-0.9,-10.8,31.35,SE,135,0.0,3.0,62,0.00,,,0.00,meteohub,2013-12-06 00:32:00,
2013-12-05 17:37:00,-1.3,-11.2,31.35,SE,135,0.0,3.0,62,0.00,,,0.00,meteohub,2013-12-06 00:37:00,
2013-12-05 17:42:00,-1.5,-11.4,31.35,SE,135,0.0,3.0,62,0.00,,,0.00,meteohub,2013-12-06 00:42:00,
2013-12-05 17:47:00,-1.7,-11.6,31.35,SE,135,2.0,2.0,62,0.00,,,0.00,meteohub,2013-12-06 00:47:00,
2013-12-05 17:52:00,-1.8,-11.7,31.35,SE,135,3.0,4.0,62,0.00,,,0.00,meteohub,2013-12-06 00:52:00,
2013-12-05 17:57:00,-2.2,-12.1,31.35,SE,135,1.0,4.0,62,0.00,,,0.00,meteohub,2013-12-06 00:57:00,
2013-12-05 18:02:00,-2.2,-12.1,31.35,SE,135,0.0,4.0,62,0.00,,,0.00,meteohub,2013-12-06 01:02:00,
2013-12-05 18:07:00,-2.4,-11.9,31.35,SE,135,3.0,3.0,63,0.00,,,0.00,meteohub,2013-12-06 01:07:00,
2013-12-05 18:12:00,-2.6,-12.1,31.35,SE,135,4.0,4.0,63,0.00,,,0.00,meteohub,2013-12-06 01:12:00,
2013-12-05 18:17:00,-2.7,-12.3,31.35,SE,135,0.0,6.0,63,0.00,,,0.00,meteohub,2013-12-06 01:17:00,
2013-12-05 18:22:00,-2.9,-12.5,31.35,SE,135,3.0,6.0,63,0.00,,,0.00,meteohub,2013-12-06 01:22:00,
2013-12-05 18:27:00,-2.9,-12.5,31.35,SE,135,2.0,5.0,63,0.00,,,0.00,meteohub,2013-12-06 01:27:00,
2013-12-05 18:32:00,-3.1,-12.6,31.35,SE,135,2.0,4.0,63,0.00,,,0.00,meteohub,2013-12-06 01:32:00,
2013-12-05 18:37:00,-3.3,-12.6,31.35,SE,135,4.0,4.0,63,0.00,,,0.00,meteohub,2013-12-06 01:37:00,
2013-12-05 18:42:00,-3.5,-12.8,31.35,SE,135,0.0,4.0,63,0.00,,,0.00,meteohub,2013-12-06 01:42:00,
2013-12-05 18:47:00,-3.6,-13.4,31.36,SE,135,3.0,4.0,62,0.00,,,0.00,meteohub,2013-12-06 01:47:00,
2013-12-05 18:52:00,-3.6,-13.4,31.36,SE,135,0.0,4.0,62,0.00,,,0.00,meteohub,2013-12-06 01:52:00,
2013-12-05 18:57:00,-4.0,-13.7,31.36,SE,135,0.0,4.0,62,0.00,,,0.00,meteohub,2013-12-06 01:57:00,
2013-12-05 19:02:00,-4.2,-13.5,31.36,SE,135,0.0,4.0,63,0.00,,,0.00,meteohub,2013-12-06 02:02:00,
2013-12-05 19:07:00,-4.2,-13.5,31.36,SE,135,0.0,0.0,63,0.00,,,0.00,meteohub,2013-12-06 02:07:00,
2013-12-05 19:12:00,-4.5,-14.3,31.36,SE,135,4.0,4.0,62,0.00,,,0.00,meteohub,2013-12-06 02:12:00,
2013-12-05 19:17:00,-4.7,-14.4,31.36,SE,135,0.0,4.0,62,0.00,,,0.00,meteohub,2013-12-06 02:17:00,
2013-12-05 19:22:00,-4.9,-14.6,31.36,SE,135,0.0,4.0,62,0.00,,,0.00,meteohub,2013-12-06 02:22:00,
2013-12-05 19:27:00,-4.9,-14.6,31.36,SE,135,0.0,4.0,62,0.00,,,0.00,meteohub,2013-12-06 02:27:00,
2013-12-05 19:32:00,-5.3,-15.0,31.36,SE,135,0.0,2.0,62,0.00,,,0.00,meteohub,2013-12-06 02:32:00,
2013-12-05 19:37:00,-5.6,-15.5,31.36,SE,135,0.0,2.0,61,0.00,,,0.00,meteohub,2013-12-06 02:37:00,
2013-12-05 19:42:00,-6.0,-15.7,31.36,SE,135,2.0,0.0,62,0.00,,,0.00,meteohub,2013-12-06 02:42:00,
2013-12-05 19:47:00,-6.5,-16.4,31.37,SE,135,2.0,2.0,61,0.00,,,0.00,meteohub,2013-12-06 02:47:00,
2013-12-05 19:52:00,-7.1,-17.0,31.36,SE,135,2.0,2.0,61,0.00,,,0.00,meteohub,2013-12-06 02:52:00,
2013-12-05 19:57:00,-7.2,-17.1,31.37,SE,135,0.0,2.0,61,0.00,,,0.00,meteohub,2013-12-06 02:57:00,
2013-12-05 20:02:00,-7.4,-17.7,31.36,SE,135,2.0,2.0,60,0.00,,,0.00,meteohub,2013-12-06 03:02:00,
2013-12-05 20:07:00,-7.6,-17.9,31.37,SE,135,2.0,4.0,60,0.00,,,0.00,meteohub,2013-12-06 03:07:00,
2013-12-05 20:12:00,-8.0,-19.5,31.37,SE,135,2.0,4.0,56,0.00,,,0.00,meteohub,2013-12-06 03:12:00,
2013-12-05 20:17:00,-8.1,-19.7,31.37,SE,135,0.0,4.0,56,0.00,,,0.00,meteohub,2013-12-06 03:17:00,
2013-12-05 20:22:00,-8.1,-19.7,31.37,SE,135,2.0,4.0,56,0.00,,,0.00,meteohub,2013-12-06 03:22:00,
2013-12-05 20:27:00,-8.0,-19.5,31.37,SE,135,3.0,4.0,56,0.00,,,0.00,meteohub,2013-12-06 03:27:00,
2013-12-05 20:32:00,-8.0,-19.5,31.37,SE,135,2.0,4.0,56,0.00,,,0.00,meteohub,2013-12-06 03:32:00,
2013-12-05 20:37:00,-8.0,-19.5,31.37,SE,135,2.0,4.0,56,0.00,,,0.00,meteohub,2013-12-06 03:37:00,
2013-12-05 20:42:00,-8.0,-19.5,31.37,SE,135,4.0,4.0,56,0.00,,,0.00,meteohub,2013-12-06 03:42:00,
2013-12-05 20:47:00,-8.1,-19.7,31.37,SE,135,0.0,4.0,56,0.00,,,0.00,meteohub,2013-12-06 03:47:00,
2013-12-05 20:52:00,-8.3,-19.8,31.36,SE,135,2.0,4.0,56,0.00,,,0.00,meteohub,2013-12-06 03:52:00,
2013-12-05 20:57:00,-8.5,-20.0,31.37,SE,135,0.0,4.0,56,0.00,,,0.00,meteohub,2013-12-06 03:57:00,
2013-12-05 21:02:00,-8.9,-20.7,31.37,SE,135,0.0,2.0,55,0.00,,,0.00,meteohub,2013-12-06 04:02:00,
2013-12-05 21:07:00,-8.9,-20.7,31.37,SE,135,0.0,2.0,55,0.00,,,0.00,meteohub,2013-12-06 04:07:00,
2013-12-05 21:12:00,-9.4,-21.1,31.37,SE,135,0.0,0.0,55,0.00,,,0.00,meteohub,2013-12-06 04:12:00,
2013-12-05 21:17:00,-9.8,-21.1,31.36,SE,135,0.0,0.0,56,0.00,,,0.00,meteohub,2013-12-06 04:17:00,
2013-12-05 21:22:00,-10.1,-21.8,31.37,SE,135,0.0,2.0,55,0.00,,,0.00,meteohub,2013-12-06 04:22:00,
2013-12-05 21:27:00,-10.5,-22.2,31.37,SE,135,0.0,2.0,55,0.00,,,0.00,meteohub,2013-12-06 04:27:00,
2013-12-05 21:32:00,-10.5,-22.2,31.38,SE,135,1.0,2.0,55,0.00,,,0.00,meteohub,2013-12-06 04:32:00,
2013-12-05 21:37:00,-10.7,-22.4,31.38,SE,135,0.0,2.0,55,0.00,,,0.00,meteohub,2013-12-06 04:37:00,
2013-12-05 21:42:00,-10.8,-22.5,31.38,SE,135,0.0,4.0,55,0.00,,,0.00,meteohub,2013-12-06 04:42:00,
2013-12-05 21:47:00,-11.0,-22.7,31.38,SE,135,0.0,4.0,55,0.00,,,0.00,meteohub,2013-12-06 04:47:00,
2013-12-05 21:52:00,-11.2,-23.3,31.38,SE,135,0.0,4.0,54,0.00,,,0.00,meteohub,2013-12-06 04:52:00,
2013-12-05 21:57:00,-11.4,-23.1,31.38,SE,135,0.0,2.0,55,0.00,,,0.00,meteohub,2013-12-06 04:57:00,
2013-12-05 22:01:00,-11.4,-23.1,31.38,SE,135,0.0,2.0,55,0.00,,,0.00,meteohub,2013-12-06 05:01:00,
2013-12-05 22:03:00,-11.4,-23.1,31.38,SE,135,2.0,2.0,55,0.00,,,0.00,meteohub,2013-12-06 05:03:00,
2013-12-05 22:04:00,-11.4,-23.1,31.38,SE,135,0.0,2.0,55,0.00,,,0.00,meteohub,2013-12-06 05:04:00,
2013-12-05 22:05:00,-11.4,-23.1,31.38,SE,135,0.0,2.0,55,0.00,,,0.00,meteohub,2013-12-06 05:05:00,
2013-12-05 22:06:00,-11.4,-23.1,31.38,SE,135,0.0,2.0,55,0.00,,,0.00,meteohub,2013-12-06 05:06:00,
2013-12-05 22:11:00,-11.6,-23.3,31.38,SE,135,0.0,2.0,55,0.00,,,0.00,meteohub,2013-12-06 05:11:00,
2013-12-05 22:16:00,-11.7,-23.4,31.38,SE,135,0.0,2.0,55,0.00,,,0.00,meteohub,2013-12-06 05:16:00,
2013-12-05 22:21:00,-11.7,-23.4,31.39,SE,135,0.0,2.0,55,0.00,,,0.00,meteohub,2013-12-06 05:21:00,
2013-12-05 22:26:00,-12.1,-23.8,31.38,SE,135,0.0,2.0,55,0.00,,,0.00,meteohub,2013-12-06 05:26:00,
2013-12-05 22:32:00,-12.1,-23.8,31.39,SE,135,2.0,2.0,55,0.00,,,0.00,meteohub,2013-12-06 05:32:00,
2013-12-05 22:37:00,-12.3,-23.8,31.39,SE,135,0.0,2.0,55,0.00,,,0.00,meteohub,2013-12-06 05:37:00,
2013-12-05 22:42:00,-12.5,-24.0,31.38,SE,135,2.0,2.0,55,0.00,,,0.00,meteohub,2013-12-06 05:42:00,
2013-12-05 22:47:00,-12.8,-24.7,31.39,SE,135,4.0,4.0,54,0.00,,,0.00,meteohub,2013-12-06 05:47:00,
2013-12-05 22:52:00,-13.4,-24.9,31.39,SE,135,0.0,4.0,55,0.00,,,0.00,meteohub,2013-12-06 05:52:00,
2013-12-05 22:57:00,-13.9,-25.4,31.38,SE,135,2.0,4.0,55,0.00,,,0.00,meteohub,2013-12-06 05:57:00,
2013-12-05 23:02:00,-14.1,-26.0,31.38,SE,135,0.0,4.0,54,0.00,,,0.00,meteohub,2013-12-06 06:02:00,
2013-12-05 23:07:00,-14.1,-26.0,31.38,SE,135,0.0,2.0,54,0.00,,,0.00,meteohub,2013-12-06 06:07:00,
2013-12-05 23:12:00,-15.0,-26.5,31.38,SE,135,2.0,2.0,55,0.00,,,0.00,meteohub,2013-12-06 06:12:00,
2013-12-05 23:17:00,-15.2,-26.7,31.38,SE,135,0.0,2.0,55,0.00,,,0.00,meteohub,2013-12-06 06:17:00,
2013-12-05 23:22:00,-15.3,-26.7,31.39,SE,135,0.0,2.0,55,0.00,,,0.00,meteohub,2013-12-06 06:22:00,
2013-12-05 23:27:00,-15.5,-26.9,31.39,SE,135,0.0,2.0,55,0.00,,,0.00,meteohub,2013-12-06 06:27:00,
2013-12-05 23:32:00,-15.7,-27.0,31.38,SE,135,0.0,4.0,55,0.00,,,0.00,meteohub,2013-12-06 06:32:00,
2013-12-05 23:37:00,-15.7,-27.0,31.38,SE,135,2.0,4.0,55,0.00,,,0.00,meteohub,2013-12-06 06:37:00,
2013-12-05 23:42:00,-15.5,-26.9,31.38,SE,135,1.0,4.0,55,0.00,,,0.00,meteohub,2013-12-06 06:42:00,
2013-12-05 23:47:00,-15.5,-26.9,31.38,SE,135,2.0,2.0,55,0.00,,,0.00,meteohub,2013-12-06 06:47:00,
2013-12-05 23:52:00,-15.5,-26.9,31.38,SE,135,2.0,3.0,55,0.00,,,0.00,meteohub,2013-12-06 06:52:00,
2013-12-05 23:57:00,-15.3,-26.7,31.38,SE,135,2.0,3.0,55,0.00,,,0.00,meteohub,2013-12-06 06:57:00,